Coober Pedy, South Australia

1:17 PM CST on August 29, 2014 (GMT +0930)
Coober Pedy | Change Station
CLOSE
Current Station
Airport
Location: Coober Pedy Airport,
Elevation: 738 ft
Nearby Weather Stations

Elev 738 ft 29.04 °S, 134.72 °E | Updated 47 minutes ago

Clear
Clear
73 °F
Feels Like 73 °F
N
15
Wind Variable Wind from NE

Today
High -- | Low -- °F
--% Chance of Precip.
Yesterday
High -- | Low -- °F
Precip. -- in
6:49 AM 6:15 PM
Waxing Crescent, 11% visible
Pressure 30.27 in
Visibility -9999.0 miles
Clouds
Dew Point 34 °F
Humidity 23%
Rainfall 0.00 in
Snow Depth Not available.
UV Not available.
Pollen Not available.
Air Quality Not available.
Flu Activity Not available.
METAR YCBP 290300Z AUTO 04013KT //// // NCD 23/01 Q1025

More Conditions Fewer Conditions

Pressure 30.27 in
Visibility -9999.0 miles
Clouds
Dew Point 34 °F
Humidity 23%
Rainfall 0.00 in
Snow Depth Not available.
UV Not available.
Pollen Not available.
Air Quality Not available.
Flu Activity Not available.
METAR YCBP 290300Z AUTO 04013KT //// // NCD 23/01 Q1025

More Conditions Fewer Conditions

10-Day Weather Forecast

Almanac

Astronomy

Aug. 29, 2014 Rise Set
Actual Time 6:49 AM CST 6:15 PM CST
Civil Twilight 6:25 AM CST 6:39 PM CST
Nautical Twilight 5:58 AM CST 7:06 PM CST
Astronomical Twilight 5:30 AM CST 7:34 PM CST
Moon 8:36 AM CST 9:28 PM CST
Length of Visible Light 12h 13m
Length of Day
11h 25m
Tomorrow will be 1m 37s longer.
Waxing Crescent, 11% of the Moon is Illuminated
Aug 28
Waxing Crescent
Sep 2
First Quarter
Sep 8
Full
Sep 15
Last Quarter
Sep 24
New

Yesterday's Extremes

Country Highs Country Lows

Community

WunderPhotos

Upload Photos

1,748,182 photos uploaded!

Nearby

Snow Depth

Not available.

Earthquake Activity

City Distance Mag. Time & Date
No recent earthquake activity has been reported nearby.
Minimum magnitude displayed is 2.5.

Coastal Water Temperatures

Place Temperature
No Stations Reporting

Nearby Weather Stations